Glenville, WV (26351)

2:53 AM EST on February 13, 2016 (GMT -0500)
Brooklyn Point | | Change Station
CLOSE
Current Station
Personal Weather Station
Location: Glenville, WV
Elevation: 732 ft
Nearby Weather Stations

Elev 732 ft 38.94 °N, 80.84 °W | Updated 4 minutes ago

Partly Cloudy
Partly Cloudy
17.4 °F
Feels Like 17 °F
N
2.2
Wind Variable Wind from WSW

Today
High -- | Low -- °F
--% Chance of Precip.
Yesterday
High -- | Low -- °F
Precip. -- in
Pressure 30.12 in
Visibility 10.0 miles
Clouds Few 2900 ft
Windchill 17 °F
Dew Point 8 °F
Humidity 65%
Rainfall 0.00 in
Snow Depth Not available.
7:17 AM 5:57 PM
Waxing Crescent, 28% visible
METAR KW22 130735Z AUTO 28012G19KT 10SM FEW029 M11/M17 A3012 RMK AO2
Pressure 30.12 in
Visibility 10.0 miles
Clouds Few 2900 ft
Windchill 17 °F
Dew Point 8 °F
Humidity 65%
Rainfall 0.00 in
Snow Depth Not available.
7:17 AM 5:57 PM
Waxing Crescent, 28% visible
METAR KW22 130735Z AUTO 28012G19KT 10SM FEW029 M11/M17 A3012 RMK AO2

10-Day Weather Forecast

Almanac

Astronomy

Feb. 13, 2016 Rise Set
Actual Time
Civil Twilight
Nautical Twilight
Astronomical Twilight
Moon
Length of Visible Light
Length of Day
Tomorrow will be .
, % of the Moon is Illuminated

Today's Extremes

State Highs State Lows

Community

WunderPhotos

Upload Photos

1,892,526 photos uploaded!

WunderBlog® & News

Nearby

Air Quality

  Air Quality AQ Index Pollutant
Not available.

Snow Depth

Station Depth Elevation

Earthquake Activity

City Distance Mag. Time & Date
Minimum magnitude displayed is 2.5.

Coastal Water Temperatures

Place Temperature

Stations

Nearby Weather Stations

Station Location Temp. Windchill Dew Point Humidity Wind Precip. Elev Updated Type
                   

Watches & Warnings

There are currently no watches in effect.